sensor_id;sensor_type;location;lat;lon;timestamp;P1;durP1;ratioP1;P2;durP2;ratioP2
45206;SDS011;30950;53.086;21.576;2022-11-20T00:01:25;47.05;;;26.13;;
45206;SDS011;30950;53.086;21.576;2022-11-20T00:03:54;46.95;;;27.92;;
45206;SDS011;30950;53.086;21.576;2022-11-20T00:06:23;46.63;;;25.88;;
45206;SDS011;30950;53.086;21.576;2022-11-20T00:08:51;45.10;;;26.05;;
45206;SDS011;30950;53.086;21.576;2022-11-20T00:11:21;43.70;;;25.02;;
45206;SDS011;30950;53.086;21.576;2022-11-20T00:13:51;43.78;;;26.58;;
45206;SDS011;30950;53.086;21.576;2022-11-20T00:16:22;47.25;;;25.65;;
45206;SDS011;30950;53.086;21.576;2022-11-20T00:18:50;45.65;;;24.77;;
45206;SDS011;30950;53.086;21.576;2022-11-20T00:21:23;52.10;;;26.70;;
45206;SDS011;30950;53.086;21.576;2022-11-20T00:23:53;47.40;;;25.15;;
45206;SDS011;30950;53.086;21.576;2022-11-20T00:26:22;50.80;;;25.65;;
45206;SDS011;30950;53.086;21.576;2022-11-20T00:28:52;46.00;;;25.98;;
45206;SDS011;30950;53.086;21.576;2022-11-20T00:31:21;48.45;;;26.10;;
45206;SDS011;30950;53.086;21.576;2022-11-20T00:33:49;40.45;;;23.02;;
45206;SDS011;30950;53.086;21.576;2022-11-20T00:36:17;46.53;;;25.30;;
45206;SDS011;30950;53.086;21.576;2022-11-20T00:38:46;45.08;;;25.98;;
45206;SDS011;30950;53.086;21.576;2022-11-20T00:41:17;47.00;;;26.90;;
45206;SDS011;30950;53.086;21.576;2022-11-20T00:43:45;41.83;;;23.30;;
45206;SDS011;30950;53.086;21.576;2022-11-20T00:46:16;38.53;;;22.58;;
45206;SDS011;30950;53.086;21.576;2022-11-20T00:48:45;42.15;;;24.05;;
45206;SDS011;30950;53.086;21.576;2022-11-20T00:51:13;40.92;;;23.27;;
45206;SDS011;30950;53.086;21.576;2022-11-20T00:53:43;41.63;;;23.02;;
45206;SDS011;30950;53.086;21.576;2022-11-20T00:56:12;42.47;;;24.95;;
45206;SDS011;30950;53.086;21.576;2022-11-20T00:58:42;43.00;;;22.90;;
45206;SDS011;30950;53.086;21.576;2022-11-20T01:01:14;39.78;;;21.85;;
45206;SDS011;30950;53.086;21.576;2022-11-20T01:03:48;42.88;;;24.40;;
45206;SDS011;30950;53.086;21.576;2022-11-20T01:06:21;37.83;;;23.52;;
45206;SDS011;30950;53.086;21.576;2022-11-20T01:08:52;37.65;;;22.33;;
45206;SDS011;30950;53.086;21.576;2022-11-20T01:11:25;41.03;;;23.85;;
45206;SDS011;30950;53.086;21.576;2022-11-20T01:13:54;40.58;;;23.38;;
45206;SDS011;30950;53.086;21.576;2022-11-20T01:16:24;37.88;;;22.02;;
45206;SDS011;30950;53.086;21.576;2022-11-20T01:18:55;39.97;;;21.05;;
45206;SDS011;30950;53.086;21.576;2022-11-20T01:21:28;39.35;;;22.20;;
45206;SDS011;30950;53.086;21.576;2022-11-20T01:24:00;30.53;;;18.03;;
45206;SDS011;30950;53.086;21.576;2022-11-20T01:26:30;41.72;;;23.05;;
45206;SDS011;30950;53.086;21.576;2022-11-20T01:28:59;40.67;;;23.27;;
45206;SDS011;30950;53.086;21.576;2022-11-20T01:31:28;42.22;;;23.08;;
45206;SDS011;30950;53.086;21.576;2022-11-20T01:33:58;40.85;;;21.63;;
45206;SDS011;30950;53.086;21.576;2022-11-20T01:36:28;42.88;;;22.10;;
45206;SDS011;30950;53.086;21.576;2022-11-20T01:38:57;39.90;;;22.20;;
45206;SDS011;30950;53.086;21.576;2022-11-20T01:41:27;42.92;;;23.63;;
45206;SDS011;30950;53.086;21.576;2022-11-20T01:46:55;37.83;;;21.45;;
45206;SDS011;30950;53.086;21.576;2022-11-20T01:49:41;39.78;;;22.67;;
45206;SDS011;30950;53.086;21.576;2022-11-20T01:52:15;37.67;;;20.53;;
45206;SDS011;30950;53.086;21.576;2022-11-20T01:54:48;41.08;;;21.85;;
45206;SDS011;30950;53.086;21.576;2022-11-20T01:57:23;37.75;;;21.98;;
45206;SDS011;30950;53.086;21.576;2022-11-20T01:59:54;38.08;;;22.52;;
45206;SDS011;30950;53.086;21.576;2022-11-20T02:02:26;37.33;;;22.42;;
45206;SDS011;30950;53.086;21.576;2022-11-20T02:04:54;38.15;;;23.90;;
45206;SDS011;30950;53.086;21.576;2022-11-20T02:07:25;39.58;;;21.50;;
45206;SDS011;30950;53.086;21.576;2022-11-20T02:09:53;41.05;;;22.10;;
45206;SDS011;30950;53.086;21.576;2022-11-20T02:12:24;39.35;;;23.10;;
45206;SDS011;30950;53.086;21.576;2022-11-20T02:15:10;41.67;;;23.65;;
45206;SDS011;30950;53.086;21.576;2022-11-20T02:17:38;43.10;;;24.02;;
45206;SDS011;30950;53.086;21.576;2022-11-20T02:20:05;43.63;;;23.77;;
45206;SDS011;30950;53.086;21.576;2022-11-20T02:22:36;42.13;;;23.58;;
45206;SDS011;30950;53.086;21.576;2022-11-20T02:25:12;42.33;;;25.00;;
45206;SDS011;30950;53.086;21.576;2022-11-20T02:27:40;43.05;;;25.02;;
45206;SDS011;30950;53.086;21.576;2022-11-20T02:30:08;44.00;;;24.45;;
45206;SDS011;30950;53.086;21.576;2022-11-20T02:32:38;45.25;;;25.63;;
45206;SDS011;30950;53.086;21.576;2022-11-20T02:35:08;44.53;;;25.13;;
45206;SDS011;30950;53.086;21.576;2022-11-20T02:37:57;43.10;;;24.42;;
45206;SDS011;30950;53.086;21.576;2022-11-20T02:40:27;44.80;;;26.05;;
45206;SDS011;30950;53.086;21.576;2022-11-20T02:42:55;45.80;;;25.35;;
45206;SDS011;30950;53.086;21.576;2022-11-20T02:45:23;46.45;;;27.10;;
45206;SDS011;30950;53.086;21.576;2022-11-20T02:47:51;41.65;;;25.95;;
45206;SDS011;30950;53.086;21.576;2022-11-20T02:50:19;46.10;;;25.83;;
45206;SDS011;30950;53.086;21.576;2022-11-20T02:52:47;38.15;;;24.48;;
45206;SDS011;30950;53.086;21.576;2022-11-20T02:55:14;49.65;;;26.85;;
45206;SDS011;30950;53.086;21.576;2022-11-20T02:57:41;43.25;;;24.40;;
45206;SDS011;30950;53.086;21.576;2022-11-20T03:00:10;47.83;;;26.13;;
45206;SDS011;30950;53.086;21.576;2022-11-20T03:02:38;49.65;;;27.58;;
45206;SDS011;30950;53.086;21.576;2022-11-20T03:05:05;51.70;;;29.40;;
45206;SDS011;30950;53.086;21.576;2022-11-20T03:07:33;49.40;;;25.85;;
45206;SDS011;30950;53.086;21.576;2022-11-20T03:10:00;42.95;;;24.92;;
45206;SDS011;30950;53.086;21.576;2022-11-20T03:12:28;48.05;;;25.65;;
45206;SDS011;30950;53.086;21.576;2022-11-20T03:14:55;45.88;;;24.73;;
45206;SDS011;30950;53.086;21.576;2022-11-20T03:17:22;47.92;;;27.45;;
45206;SDS011;30950;53.086;21.576;2022-11-20T03:19:50;49.85;;;27.08;;
45206;SDS011;30950;53.086;21.576;2022-11-20T03:22:17;45.28;;;26.63;;
45206;SDS011;30950;53.086;21.576;2022-11-20T03:24:44;51.97;;;28.50;;
45206;SDS011;30950;53.086;21.576;2022-11-20T03:27:12;47.40;;;25.60;;
45206;SDS011;30950;53.086;21.576;2022-11-20T03:29:40;51.03;;;27.40;;
45206;SDS011;30950;53.086;21.576;2022-11-20T03:32:07;47.08;;;26.63;;
45206;SDS011;30950;53.086;21.576;2022-11-20T03:34:35;50.72;;;27.58;;
45206;SDS011;30950;53.086;21.576;2022-11-20T03:37:02;50.13;;;28.48;;
45206;SDS011;30950;53.086;21.576;2022-11-20T03:39:29;52.97;;;28.67;;
45206;SDS011;30950;53.086;21.576;2022-11-20T03:41:57;51.65;;;28.98;;
45206;SDS011;30950;53.086;21.576;2022-11-20T03:44:24;49.67;;;25.85;;
45206;SDS011;30950;53.086;21.576;2022-11-20T03:46:51;49.15;;;25.55;;
45206;SDS011;30950;53.086;21.576;2022-11-20T03:49:19;50.50;;;28.35;;
45206;SDS011;30950;53.086;21.576;2022-11-20T03:51:47;50.40;;;27.27;;
45206;SDS011;30950;53.086;21.576;2022-11-20T03:54:14;50.03;;;26.70;;
45206;SDS011;30950;53.086;21.576;2022-11-20T03:56:42;47.65;;;27.77;;
45206;SDS011;30950;53.086;21.576;2022-11-20T03:59:09;48.28;;;27.50;;
45206;SDS011;30950;53.086;21.576;2022-11-20T04:01:37;50.40;;;27.02;;
45206;SDS011;30950;53.086;21.576;2022-11-20T04:04:04;50.58;;;25.60;;
45206;SDS011;30950;53.086;21.576;2022-11-20T04:06:36;47.15;;;25.88;;
45206;SDS011;30950;53.086;21.576;2022-11-20T04:09:04;49.03;;;26.45;;
45206;SDS011;30950;53.086;21.576;2022-11-20T04:11:33;52.33;;;28.38;;
45206;SDS011;30950;53.086;21.576;2022-11-20T04:14:03;52.30;;;27.77;;
45206;SDS011;30950;53.086;21.576;2022-11-20T04:16:33;53.25;;;29.10;;
45206;SDS011;30950;53.086;21.576;2022-11-20T04:19:03;54.15;;;29.58;;
45206;SDS011;30950;53.086;21.576;2022-11-20T04:21:33;46.42;;;25.23;;
45206;SDS011;30950;53.086;21.576;2022-11-20T04:24:00;47.65;;;24.33;;
45206;SDS011;30950;53.086;21.576;2022-11-20T04:26:28;51.80;;;28.08;;
45206;SDS011;30950;53.086;21.576;2022-11-20T04:28:56;50.65;;;28.30;;
45206;SDS011;30950;53.086;21.576;2022-11-20T04:31:26;50.50;;;27.33;;
45206;SDS011;30950;53.086;21.576;2022-11-20T04:33:55;50.50;;;28.38;;
45206;SDS011;30950;53.086;21.576;2022-11-20T04:36:26;54.60;;;29.55;;
45206;SDS011;30950;53.086;21.576;2022-11-20T04:38:56;44.50;;;25.45;;
45206;SDS011;30950;53.086;21.576;2022-11-20T04:41:28;52.17;;;26.13;;
45206;SDS011;30950;53.086;21.576;2022-11-20T04:43:58;53.30;;;28.80;;
45206;SDS011;30950;53.086;21.576;2022-11-20T04:46:30;48.25;;;26.50;;
45206;SDS011;30950;53.086;21.576;2022-11-20T04:48:59;56.08;;;28.95;;
45206;SDS011;30950;53.086;21.576;2022-11-20T04:51:28;54.90;;;28.52;;
45206;SDS011;30950;53.086;21.576;2022-11-20T04:53:55;55.88;;;28.65;;
45206;SDS011;30950;53.086;21.576;2022-11-20T04:56:23;51.78;;;27.83;;
45206;SDS011;30950;53.086;21.576;2022-11-20T04:58:50;48.13;;;27.42;;
45206;SDS011;30950;53.086;21.576;2022-11-20T05:01:19;47.88;;;26.45;;
45206;SDS011;30950;53.086;21.576;2022-11-20T05:03:50;55.28;;;28.55;;
45206;SDS011;30950;53.086;21.576;2022-11-20T05:06:23;50.40;;;27.20;;
45206;SDS011;30950;53.086;21.576;2022-11-20T05:08:51;47.58;;;27.38;;
45206;SDS011;30950;53.086;21.576;2022-11-20T05:11:20;52.15;;;28.65;;
45206;SDS011;30950;53.086;21.576;2022-11-20T05:13:49;47.17;;;25.42;;
45206;SDS011;30950;53.086;21.576;2022-11-20T05:16:19;48.65;;;26.27;;
45206;SDS011;30950;53.086;21.576;2022-11-20T05:18:49;47.63;;;26.42;;
45206;SDS011;30950;53.086;21.576;2022-11-20T05:21:17;50.08;;;27.25;;
45206;SDS011;30950;53.086;21.576;2022-11-20T05:23:44;53.33;;;29.67;;
45206;SDS011;30950;53.086;21.576;2022-11-20T05:26:14;48.13;;;27.08;;
45206;SDS011;30950;53.086;21.576;2022-11-20T05:28:48;46.97;;;26.45;;
45206;SDS011;30950;53.086;21.576;2022-11-20T05:31:20;51.63;;;29.48;;
45206;SDS011;30950;53.086;21.576;2022-11-20T05:33:54;47.63;;;25.63;;
45206;SDS011;30950;53.086;21.576;2022-11-20T05:36:23;53.03;;;26.42;;
45206;SDS011;30950;53.086;21.576;2022-11-20T05:38:51;50.17;;;27.27;;
45206;SDS011;30950;53.086;21.576;2022-11-20T05:41:25;48.25;;;26.02;;
45206;SDS011;30950;53.086;21.576;2022-11-20T05:43:52;40.78;;;24.75;;
45206;SDS011;30950;53.086;21.576;2022-11-20T05:46:20;45.72;;;25.90;;
45206;SDS011;30950;53.086;21.576;2022-11-20T05:48:54;44.25;;;26.42;;
45206;SDS011;30950;53.086;21.576;2022-11-20T05:51:23;48.92;;;28.30;;
45206;SDS011;30950;53.086;21.576;2022-11-20T05:53:51;49.78;;;26.15;;
45206;SDS011;30950;53.086;21.576;2022-11-20T05:56:19;45.40;;;24.42;;
45206;SDS011;30950;53.086;21.576;2022-11-20T05:58:48;45.30;;;24.30;;
45206;SDS011;30950;53.086;21.576;2022-11-20T06:01:23;50.45;;;27.60;;
45206;SDS011;30950;53.086;21.576;2022-11-20T06:03:52;46.60;;;26.13;;
45206;SDS011;30950;53.086;21.576;2022-11-20T06:06:20;43.75;;;23.95;;
45206;SDS011;30950;53.086;21.576;2022-11-20T06:08:48;46.10;;;25.35;;
45206;SDS011;30950;53.086;21.576;2022-11-20T06:11:16;45.53;;;25.75;;
45206;SDS011;30950;53.086;21.576;2022-11-20T06:13:44;46.55;;;27.27;;
45206;SDS011;30950;53.086;21.576;2022-11-20T06:16:14;46.88;;;23.60;;
45206;SDS011;30950;53.086;21.576;2022-11-20T06:18:42;41.72;;;23.60;;
45206;SDS011;30950;53.086;21.576;2022-11-20T06:21:14;44.05;;;26.27;;
45206;SDS011;30950;53.086;21.576;2022-11-20T06:23:43;43.45;;;24.50;;
45206;SDS011;30950;53.086;21.576;2022-11-20T06:26:16;46.47;;;26.33;;
45206;SDS011;30950;53.086;21.576;2022-11-20T06:28:48;45.47;;;25.73;;
45206;SDS011;30950;53.086;21.576;2022-11-20T06:31:17;44.88;;;25.25;;
45206;SDS011;30950;53.086;21.576;2022-11-20T06:33:46;44.28;;;25.20;;
45206;SDS011;30950;53.086;21.576;2022-11-20T06:36:14;40.67;;;24.48;;
45206;SDS011;30950;53.086;21.576;2022-11-20T06:38:43;43.70;;;23.95;;
45206;SDS011;30950;53.086;21.576;2022-11-20T06:41:12;43.38;;;25.10;;
45206;SDS011;30950;53.086;21.576;2022-11-20T06:43:41;47.38;;;25.33;;
45206;SDS011;30950;53.086;21.576;2022-11-20T06:46:10;50.70;;;26.05;;
45206;SDS011;30950;53.086;21.576;2022-11-20T06:48:39;39.75;;;24.08;;
45206;SDS011;30950;53.086;21.576;2022-11-20T06:51:07;43.03;;;23.98;;
45206;SDS011;30950;53.086;21.576;2022-11-20T06:53:35;46.28;;;26.25;;
45206;SDS011;30950;53.086;21.576;2022-11-20T06:56:03;44.00;;;25.35;;
45206;SDS011;30950;53.086;21.576;2022-11-20T06:58:31;44.97;;;25.17;;
45206;SDS011;30950;53.086;21.576;2022-11-20T07:01:01;47.25;;;26.15;;
45206;SDS011;30950;53.086;21.576;2022-11-20T07:03:32;41.65;;;22.83;;
45206;SDS011;30950;53.086;21.576;2022-11-20T07:06:00;42.97;;;23.80;;
45206;SDS011;30950;53.086;21.576;2022-11-20T07:08:27;43.55;;;24.63;;
45206;SDS011;30950;53.086;21.576;2022-11-20T07:10:59;48.72;;;25.63;;
45206;SDS011;30950;53.086;21.576;2022-11-20T07:13:28;48.50;;;26.77;;
45206;SDS011;30950;53.086;21.576;2022-11-20T07:16:00;40.08;;;22.15;;
45206;SDS011;30950;53.086;21.576;2022-11-20T07:18:32;42.92;;;23.85;;
45206;SDS011;30950;53.086;21.576;2022-11-20T07:21:00;42.30;;;24.55;;
45206;SDS011;30950;53.086;21.576;2022-11-20T07:23:32;43.97;;;25.83;;
45206;SDS011;30950;53.086;21.576;2022-11-20T07:26:06;42.97;;;22.95;;
45206;SDS011;30950;53.086;21.576;2022-11-20T07:28:35;42.30;;;23.23;;
45206;SDS011;30950;53.086;21.576;2022-11-20T07:31:03;46.70;;;24.52;;
45206;SDS011;30950;53.086;21.576;2022-11-20T07:33:33;54.75;;;28.05;;
45206;SDS011;30950;53.086;21.576;2022-11-20T07:36:01;55.97;;;28.08;;
45206;SDS011;30950;53.086;21.576;2022-11-20T07:38:28;56.00;;;28.02;;
45206;SDS011;30950;53.086;21.576;2022-11-20T07:40:56;55.08;;;27.90;;
45206;SDS011;30950;53.086;21.576;2022-11-20T07:43:24;48.20;;;26.17;;
45206;SDS011;30950;53.086;21.576;2022-11-20T07:45:52;44.17;;;25.08;;
45206;SDS011;30950;53.086;21.576;2022-11-20T07:48:22;49.58;;;27.30;;
45206;SDS011;30950;53.086;21.576;2022-11-20T07:50:56;47.30;;;25.35;;
45206;SDS011;30950;53.086;21.576;2022-11-20T07:53:23;43.90;;;24.45;;
45206;SDS011;30950;53.086;21.576;2022-11-20T07:55:51;44.03;;;22.75;;
45206;SDS011;30950;53.086;21.576;2022-11-20T07:58:19;44.75;;;24.98;;
45206;SDS011;30950;53.086;21.576;2022-11-20T08:00:47;38.88;;;22.90;;
45206;SDS011;30950;53.086;21.576;2022-11-20T08:03:14;39.00;;;21.20;;
45206;SDS011;30950;53.086;21.576;2022-11-20T08:05:50;42.25;;;23.27;;
45206;SDS011;30950;53.086;21.576;2022-11-20T08:08:17;43.65;;;25.90;;
45206;SDS011;30950;53.086;21.576;2022-11-20T08:10:44;40.38;;;22.42;;
45206;SDS011;30950;53.086;21.576;2022-11-20T08:13:11;41.45;;;23.27;;
45206;SDS011;30950;53.086;21.576;2022-11-20T08:15:58;40.17;;;21.98;;
45206;SDS011;30950;53.086;21.576;2022-11-20T08:18:25;39.50;;;22.30;;
45206;SDS011;30950;53.086;21.576;2022-11-20T08:21:02;42.90;;;23.17;;
45206;SDS011;30950;53.086;21.576;2022-11-20T08:23:30;41.40;;;22.27;;
45206;SDS011;30950;53.086;21.576;2022-11-20T08:25:58;44.65;;;25.42;;
45206;SDS011;30950;53.086;21.576;2022-11-20T08:28:25;40.25;;;23.20;;
45206;SDS011;30950;53.086;21.576;2022-11-20T08:30:57;42.22;;;24.13;;
45206;SDS011;30950;53.086;21.576;2022-11-20T08:33:29;36.38;;;20.85;;
45206;SDS011;30950;53.086;21.576;2022-11-20T08:36:00;36.92;;;21.27;;
45206;SDS011;30950;53.086;21.576;2022-11-20T08:38:28;37.72;;;22.45;;
45206;SDS011;30950;53.086;21.576;2022-11-20T08:41:00;42.03;;;24.08;;
45206;SDS011;30950;53.086;21.576;2022-11-20T08:43:48;36.83;;;22.77;;
45206;SDS011;30950;53.086;21.576;2022-11-20T08:46:17;39.40;;;21.50;;
45206;SDS011;30950;53.086;21.576;2022-11-20T08:48:44;35.97;;;21.48;;
45206;SDS011;30950;53.086;21.576;2022-11-20T08:51:11;38.30;;;22.65;;
45206;SDS011;30950;53.086;21.576;2022-11-20T08:53:39;40.08;;;23.13;;
45206;SDS011;30950;53.086;21.576;2022-11-20T08:56:08;43.88;;;24.20;;
45206;SDS011;30950;53.086;21.576;2022-11-20T08:58:37;45.08;;;26.33;;
45206;SDS011;30950;53.086;21.576;2022-11-20T09:01:25;44.08;;;23.80;;
45206;SDS011;30950;53.086;21.576;2022-11-20T09:03:55;44.95;;;23.75;;
45206;SDS011;30950;53.086;21.576;2022-11-20T09:06:26;42.28;;;24.58;;
45206;SDS011;30950;53.086;21.576;2022-11-20T09:08:54;45.05;;;24.55;;
45206;SDS011;30950;53.086;21.576;2022-11-20T09:11:21;42.15;;;24.17;;
45206;SDS011;30950;53.086;21.576;2022-11-20T09:13:49;45.58;;;25.27;;
45206;SDS011;30950;53.086;21.576;2022-11-20T09:16:17;42.53;;;24.73;;
45206;SDS011;30950;53.086;21.576;2022-11-20T09:18:44;43.60;;;26.95;;
45206;SDS011;30950;53.086;21.576;2022-11-20T09:21:12;44.53;;;23.58;;
45206;SDS011;30950;53.086;21.576;2022-11-20T09:23:40;44.92;;;24.42;;
45206;SDS011;30950;53.086;21.576;2022-11-20T09:26:11;47.35;;;24.65;;
45206;SDS011;30950;53.086;21.576;2022-11-20T09:28:40;40.42;;;23.20;;
45206;SDS011;30950;53.086;21.576;2022-11-20T09:31:09;41.00;;;23.45;;
45206;SDS011;30950;53.086;21.576;2022-11-20T09:33:44;43.05;;;24.50;;
45206;SDS011;30950;53.086;21.576;2022-11-20T09:36:12;44.13;;;26.08;;
45206;SDS011;30950;53.086;21.576;2022-11-20T09:38:39;42.72;;;25.02;;
45206;SDS011;30950;53.086;21.576;2022-11-20T09:41:10;46.83;;;26.65;;
45206;SDS011;30950;53.086;21.576;2022-11-20T09:43:49;46.20;;;24.67;;
45206;SDS011;30950;53.086;21.576;2022-11-20T09:46:28;42.55;;;24.30;;
45206;SDS011;30950;53.086;21.576;2022-11-20T09:49:24;44.38;;;25.45;;
45206;SDS011;30950;53.086;21.576;2022-11-20T09:52:03;41.75;;;24.45;;
45206;SDS011;30950;53.086;21.576;2022-11-20T09:54:41;42.22;;;24.73;;
45206;SDS011;30950;53.086;21.576;2022-11-20T09:57:12;45.22;;;24.73;;
45206;SDS011;30950;53.086;21.576;2022-11-20T09:59:45;41.90;;;24.75;;
45206;SDS011;30950;53.086;21.576;2022-11-20T10:02:16;44.70;;;24.38;;
45206;SDS011;30950;53.086;21.576;2022-11-20T10:04:49;42.20;;;25.90;;
45206;SDS011;30950;53.086;21.576;2022-11-20T10:07:23;39.83;;;23.67;;
45206;SDS011;30950;53.086;21.576;2022-11-20T10:09:58;31.67;;;18.77;;
45206;SDS011;30950;53.086;21.576;2022-11-20T10:31:34;37.03;;;23.88;;
45206;SDS011;30950;53.086;21.576;2022-11-20T10:34:06;40.13;;;27.27;;
45206;SDS011;30950;53.086;21.576;2022-11-20T10:39:28;37.78;;;25.15;;
45206;SDS011;30950;53.086;21.576;2022-11-20T10:42:55;41.47;;;28.03;;
45206;SDS011;30950;53.086;21.576;2022-11-20T10:47:52;40.10;;;25.70;;
45206;SDS011;30950;53.086;21.576;2022-11-20T10:50:35;39.90;;;25.17;;
45206;SDS011;30950;53.086;21.576;2022-11-20T10:58:20;43.25;;;25.90;;
45206;SDS011;30950;53.086;21.576;2022-11-20T11:01:05;38.92;;;24.50;;
45206;SDS011;30950;53.086;21.576;2022-11-20T11:03:40;42.22;;;24.90;;
45206;SDS011;30950;53.086;21.576;2022-11-20T11:06:14;37.15;;;24.17;;
45206;SDS011;30950;53.086;21.576;2022-11-20T11:08:45;43.33;;;26.85;;
45206;SDS011;30950;53.086;21.576;2022-11-20T11:11:37;41.38;;;27.08;;
45206;SDS011;30950;53.086;21.576;2022-11-20T11:14:05;36.35;;;22.95;;
45206;SDS011;30950;53.086;21.576;2022-11-20T11:16:33;42.72;;;25.42;;
45206;SDS011;30950;53.086;21.576;2022-11-20T11:19:11;47.15;;;29.30;;
45206;SDS011;30950;53.086;21.576;2022-11-20T11:21:50;43.67;;;25.98;;
45206;SDS011;30950;53.086;21.576;2022-11-20T11:24:22;40.75;;;23.10;;
45206;SDS011;30950;53.086;21.576;2022-11-20T11:27:12;38.85;;;24.23;;
45206;SDS011;30950;53.086;21.576;2022-11-20T11:29:44;41.83;;;25.65;;
45206;SDS011;30950;53.086;21.576;2022-11-20T11:32:14;40.42;;;25.77;;
45206;SDS011;30950;53.086;21.576;2022-11-20T11:35:03;34.90;;;23.52;;
45206;SDS011;30950;53.086;21.576;2022-11-20T11:37:34;39.10;;;22.83;;
45206;SDS011;30950;53.086;21.576;2022-11-20T11:40:03;37.85;;;23.80;;
45206;SDS011;30950;53.086;21.576;2022-11-20T11:42:54;37.63;;;23.92;;
45206;SDS011;30950;53.086;21.576;2022-11-20T11:45:26;37.35;;;23.73;;
45206;SDS011;30950;53.086;21.576;2022-11-20T11:47:55;41.53;;;25.30;;
45206;SDS011;30950;53.086;21.576;2022-11-20T11:50:25;36.03;;;24.10;;
45206;SDS011;30950;53.086;21.576;2022-11-20T11:53:09;37.85;;;23.00;;
45206;SDS011;30950;53.086;21.576;2022-11-20T11:55:45;41.03;;;23.83;;
45206;SDS011;30950;53.086;21.576;2022-11-20T12:00:54;38.55;;;23.35;;
45206;SDS011;30950;53.086;21.576;2022-11-20T12:03:35;36.33;;;23.27;;
45206;SDS011;30950;53.086;21.576;2022-11-20T12:06:14;36.93;;;22.33;;
45206;SDS011;30950;53.086;21.576;2022-11-20T12:17:03;38.53;;;23.15;;
45206;SDS011;30950;53.086;21.576;2022-11-20T12:19:33;34.40;;;23.27;;
45206;SDS011;30950;53.086;21.576;2022-11-20T12:25:06;37.38;;;23.83;;
45206;SDS011;30950;53.086;21.576;2022-11-20T12:30:32;36.28;;;21.77;;
45206;SDS011;30950;53.086;21.576;2022-11-20T13:07:18;34.15;;;21.13;;
45206;SDS011;30950;53.086;21.576;2022-11-20T13:09:49;34.83;;;20.40;;
45206;SDS011;30950;53.086;21.576;2022-11-20T13:17:58;33.55;;;21.73;;
45206;SDS011;30950;53.086;21.576;2022-11-20T13:20:27;34.35;;;20.73;;
45206;SDS011;30950;53.086;21.576;2022-11-20T13:22:57;40.83;;;23.17;;
45206;SDS011;30950;53.086;21.576;2022-11-20T13:25:32;35.97;;;21.80;;
45206;SDS011;30950;53.086;21.576;2022-11-20T13:28:05;36.75;;;21.20;;
45206;SDS011;30950;53.086;21.576;2022-11-20T13:30:56;35.22;;;20.40;;
45206;SDS011;30950;53.086;21.576;2022-11-20T13:33:32;33.65;;;19.70;;
45206;SDS011;30950;53.086;21.576;2022-11-20T13:38:40;35.83;;;21.90;;
45206;SDS011;30950;53.086;21.576;2022-11-20T13:41:23;33.30;;;22.27;;
45206;SDS011;30950;53.086;21.576;2022-11-20T13:44:05;35.13;;;21.00;;
45206;SDS011;30950;53.086;21.576;2022-11-20T13:46:37;41.08;;;21.27;;
45206;SDS011;30950;53.086;21.576;2022-11-20T13:49:16;36.60;;;21.83;;
45206;SDS011;30950;53.086;21.576;2022-11-20T13:51:46;42.58;;;21.70;;
45206;SDS011;30950;53.086;21.576;2022-11-20T14:00:12;41.55;;;24.35;;
45206;SDS011;30950;53.086;21.576;2022-11-20T14:02:47;40.17;;;24.40;;
45206;SDS011;30950;53.086;21.576;2022-11-20T14:05:37;39.67;;;23.80;;
45206;SDS011;30950;53.086;21.576;2022-11-20T14:08:11;37.58;;;24.10;;
45206;SDS011;30950;53.086;21.576;2022-11-20T14:10:43;37.67;;;23.85;;
45206;SDS011;30950;53.086;21.576;2022-11-20T14:13:12;40.50;;;24.75;;
45206;SDS011;30950;53.086;21.576;2022-11-20T14:15:44;39.65;;;23.08;;
45206;SDS011;30950;53.086;21.576;2022-11-20T14:18:19;41.15;;;22.88;;
45206;SDS011;30950;53.086;21.576;2022-11-20T14:20:51;42.72;;;23.25;;
45206;SDS011;30950;53.086;21.576;2022-11-20T14:23:28;42.30;;;25.10;;
45206;SDS011;30950;53.086;21.576;2022-11-20T14:25:56;41.13;;;24.10;;
45206;SDS011;30950;53.086;21.576;2022-11-20T14:28:28;36.30;;;23.27;;
45206;SDS011;30950;53.086;21.576;2022-11-20T14:30:57;38.78;;;24.00;;
45206;SDS011;30950;53.086;21.576;2022-11-20T14:33:25;40.55;;;24.45;;
45206;SDS011;30950;53.086;21.576;2022-11-20T14:35:54;44.50;;;25.20;;
45206;SDS011;30950;53.086;21.576;2022-11-20T14:38:29;38.17;;;23.65;;
45206;SDS011;30950;53.086;21.576;2022-11-20T14:41:06;41.08;;;24.65;;
45206;SDS011;30950;53.086;21.576;2022-11-20T14:43:34;42.55;;;24.38;;
45206;SDS011;30950;53.086;21.576;2022-11-20T14:46:05;40.92;;;25.00;;
45206;SDS011;30950;53.086;21.576;2022-11-20T14:48:39;44.03;;;24.73;;
45206;SDS011;30950;53.086;21.576;2022-11-20T14:54:20;47.80;;;25.60;;
45206;SDS011;30950;53.086;21.576;2022-11-20T14:56:59;43.72;;;25.92;;
45206;SDS011;30950;53.086;21.576;2022-11-20T14:59:29;45.22;;;25.95;;
45206;SDS011;30950;53.086;21.576;2022-11-20T15:02:11;46.03;;;26.38;;
45206;SDS011;30950;53.086;21.576;2022-11-20T15:04:46;42.45;;;26.02;;
45206;SDS011;30950;53.086;21.576;2022-11-20T15:07:25;47.13;;;26.80;;
45206;SDS011;30950;53.086;21.576;2022-11-20T15:09:59;46.05;;;25.98;;
45206;SDS011;30950;53.086;21.576;2022-11-20T15:12:32;50.63;;;29.05;;
45206;SDS011;30950;53.086;21.576;2022-11-20T15:15:04;55.13;;;32.45;;
45206;SDS011;30950;53.086;21.576;2022-11-20T15:17:39;55.10;;;31.80;;
45206;SDS011;30950;53.086;21.576;2022-11-20T15:20:09;57.40;;;31.52;;
45206;SDS011;30950;53.086;21.576;2022-11-20T15:22:40;53.45;;;30.17;;
45206;SDS011;30950;53.086;21.576;2022-11-20T15:25:14;56.25;;;31.77;;
45206;SDS011;30950;53.086;21.576;2022-11-20T15:27:43;58.00;;;32.05;;
45206;SDS011;30950;53.086;21.576;2022-11-20T15:30:12;59.15;;;32.78;;
45206;SDS011;30950;53.086;21.576;2022-11-20T15:32:45;56.15;;;32.63;;
45206;SDS011;30950;53.086;21.576;2022-11-20T15:35:13;55.78;;;31.60;;
45206;SDS011;30950;53.086;21.576;2022-11-20T15:37:42;51.85;;;30.73;;
45206;SDS011;30950;53.086;21.576;2022-11-20T15:40:10;61.85;;;33.33;;
45206;SDS011;30950;53.086;21.576;2022-11-20T15:42:37;59.80;;;32.83;;
45206;SDS011;30950;53.086;21.576;2022-11-20T15:45:05;55.95;;;32.28;;
45206;SDS011;30950;53.086;21.576;2022-11-20T15:47:33;58.78;;;32.88;;
45206;SDS011;30950;53.086;21.576;2022-11-20T15:50:02;58.45;;;30.00;;
45206;SDS011;30950;53.086;21.576;2022-11-20T15:52:29;60.95;;;33.17;;
45206;SDS011;30950;53.086;21.576;2022-11-20T15:55:09;56.88;;;31.35;;
45206;SDS011;30950;53.086;21.576;2022-11-20T15:57:37;59.97;;;31.90;;
45206;SDS011;30950;53.086;21.576;2022-11-20T16:00:04;53.40;;;28.73;;
45206;SDS011;30950;53.086;21.576;2022-11-20T16:02:36;52.88;;;28.80;;
45206;SDS011;30950;53.086;21.576;2022-11-20T16:05:03;55.08;;;31.75;;
45206;SDS011;30950;53.086;21.576;2022-11-20T16:07:36;53.70;;;30.52;;
45206;SDS011;30950;53.086;21.576;2022-11-20T16:10:03;53.70;;;31.58;;
45206;SDS011;30950;53.086;21.576;2022-11-20T16:12:31;53.20;;;29.42;;